createdAt,value
2023-03-17T00:01:55.061Z,4.68
2023-03-17T00:04:26.489Z,4.87
2023-03-17T00:06:54.435Z,4.34
2023-03-17T00:09:22.529Z,4.73
2023-03-17T00:11:50.161Z,4.72
2023-03-17T00:14:18.137Z,4.57
2023-03-17T00:16:51.474Z,3.90
2023-03-17T00:19:31.460Z,4.16
2023-03-17T00:22:00.008Z,4.68
2023-03-17T00:24:27.471Z,4.94
2023-03-17T00:26:54.155Z,4.87
2023-03-17T00:29:21.085Z,5.07
2023-03-17T00:31:48.115Z,5.12
2023-03-17T00:34:18.573Z,5.02
2023-03-17T00:36:50.596Z,4.96
2023-03-17T00:39:18.596Z,4.68
2023-03-17T00:44:12.476Z,4.45
2023-03-17T00:46:39.543Z,4.74
2023-03-17T00:49:19.205Z,5.02
2023-03-17T00:51:46.296Z,4.90
2023-03-17T00:54:14.195Z,4.78
2023-03-17T00:56:42.372Z,4.68
2023-03-17T00:59:30.593Z,4.62
2023-03-17T01:01:57.488Z,4.96
2023-03-17T01:04:24.221Z,4.81
2023-03-17T01:06:52.352Z,4.65
2023-03-17T01:09:20.561Z,4.70
2023-03-17T01:11:48.736Z,4.53
2023-03-17T01:14:16.822Z,4.66
2023-03-17T01:16:44.838Z,4.51
2023-03-17T01:19:13.529Z,4.58
2023-03-17T01:21:41.651Z,4.69
2023-03-17T01:24:08.392Z,4.64
2023-03-17T01:26:35.234Z,4.70
2023-03-17T01:29:01.898Z,5.02
2023-03-17T01:31:28.741Z,5.02
2023-03-17T01:33:55.447Z,4.34
2023-03-17T01:36:22.108Z,4.50
2023-03-17T01:38:50.828Z,5.02
2023-03-17T01:41:22.952Z,5.07
2023-03-17T01:43:49.968Z,5.09
2023-03-17T01:46:27.856Z,5.11
2023-03-17T01:49:16.160Z,4.82
2023-03-17T01:51:51.858Z,4.76
2023-03-17T01:54:28.268Z,4.64
2023-03-17T01:56:58.805Z,4.85
2023-03-17T01:59:31.595Z,5.10
2023-03-17T02:02:03.719Z,5.21
2023-03-17T02:04:31.450Z,4.87
2023-03-17T02:06:59.180Z,5.19
2023-03-17T02:09:27.780Z,4.94
2023-03-17T02:11:55.698Z,5.07
2023-03-17T02:14:22.606Z,5.27
2023-03-17T02:16:49.473Z,4.79
2023-03-17T02:19:16.973Z,4.72
2023-03-17T02:21:50.204Z,4.78
2023-03-17T02:24:43.392Z,5.05
2023-03-17T02:27:24.353Z,5.17
2023-03-17T02:29:50.987Z,5.21
2023-03-17T02:32:18.898Z,5.18
2023-03-17T02:34:48.833Z,5.26
2023-03-17T02:37:16.500Z,5.13
2023-03-17T02:39:43.206Z,5.04
2023-03-17T02:42:10.722Z,4.65
2023-03-17T02:44:37.360Z,4.51
2023-03-17T02:47:04.632Z,4.79
2023-03-17T02:49:32.017Z,4.71
2023-03-17T02:51:58.686Z,4.80
2023-03-17T02:54:25.633Z,4.93
2023-03-17T02:56:52.333Z,4.89
2023-03-17T02:59:19.073Z,5.03
2023-03-17T03:01:48.569Z,5.19
2023-03-17T03:04:15.307Z,5.21
2023-03-17T03:06:42.688Z,5.00
2023-03-17T03:09:11.742Z,5.00
2023-03-17T03:11:39.461Z,4.97
2023-03-17T03:14:06.979Z,4.89
2023-03-17T03:16:34.208Z,4.80
2023-03-17T03:19:00.909Z,4.63
2023-03-17T03:21:27.683Z,4.90
2023-03-17T03:23:54.423Z,4.79
2023-03-17T03:26:21.574Z,4.66
2023-03-17T03:28:48.242Z,4.75
2023-03-17T03:31:14.977Z,5.01
2023-03-17T03:33:42.699Z,4.94
2023-03-17T03:36:09.529Z,4.87
2023-03-17T03:38:36.181Z,5.00
2023-03-17T03:41:03.232Z,5.12
2023-03-17T03:43:29.910Z,5.12
2023-03-17T03:45:56.724Z,5.04
2023-03-17T03:48:23.363Z,5.04
2023-03-17T03:50:51.277Z,5.39
2023-03-17T03:53:17.920Z,5.26
2023-03-17T03:55:44.551Z,5.45
2023-03-17T03:58:11.444Z,5.35
2023-03-17T04:00:38.109Z,5.43
2023-03-17T04:03:04.934Z,5.33
2023-03-17T04:05:31.843Z,5.33
2023-03-17T04:07:58.525Z,5.31
2023-03-17T04:10:25.548Z,5.23
2023-03-17T04:12:52.168Z,5.28
2023-03-17T04:15:19.950Z,5.25
2023-03-17T04:17:46.660Z,5.01
2023-03-17T04:20:15.084Z,4.43
2023-03-17T04:22:42.101Z,4.60
2023-03-17T04:25:10.357Z,5.08
2023-03-17T04:27:37.613Z,5.15
2023-03-17T04:30:05.490Z,5.26
2023-03-17T04:32:32.249Z,5.18
2023-03-17T04:34:59.033Z,5.02
2023-03-17T04:37:25.852Z,5.14
2023-03-17T04:39:53.211Z,5.29
2023-03-17T04:42:19.843Z,5.03
2023-03-17T04:44:46.568Z,5.08
2023-03-17T04:47:13.145Z,4.78
2023-03-17T04:49:39.866Z,4.96
2023-03-17T04:52:06.806Z,5.02
2023-03-17T04:54:33.397Z,5.00
2023-03-17T04:57:00.017Z,4.66
2023-03-17T04:59:27.385Z,5.01
2023-03-17T05:01:54.102Z,4.96
2023-03-17T05:04:31.209Z,4.80
2023-03-17T05:06:58.872Z,4.95
2023-03-17T05:09:26.916Z,4.88
2023-03-17T05:11:53.664Z,4.53
2023-03-17T05:14:20.886Z,4.91
2023-03-17T05:16:48.494Z,5.28
2023-03-17T05:19:16.462Z,5.33
2023-03-17T05:21:43.743Z,5.49
2023-03-17T05:24:10.537Z,5.15
2023-03-17T05:26:37.220Z,5.19
2023-03-17T05:29:04.072Z,5.45
2023-03-17T05:31:31.630Z,5.52
2023-03-17T05:33:58.530Z,5.69
2023-03-17T05:36:25.218Z,5.11
2023-03-17T05:38:52.457Z,5.35
2023-03-17T05:41:19.266Z,5.21
2023-03-17T05:43:46.124Z,5.43
2023-03-17T05:46:12.992Z,5.01
2023-03-17T05:48:39.652Z,5.21
2023-03-17T05:51:06.726Z,5.69
2023-03-17T05:53:33.751Z,5.64
2023-03-17T05:56:00.357Z,5.56
2023-03-17T05:58:27.055Z,5.72
2023-03-17T06:00:53.800Z,5.75
2023-03-17T06:03:21.623Z,5.65
2023-03-17T06:05:48.606Z,5.78
2023-03-17T06:08:15.249Z,5.67
2023-03-17T06:10:43.138Z,5.25
2023-03-17T06:13:11.006Z,5.21
2023-03-17T06:15:37.985Z,5.55
2023-03-17T06:18:05.755Z,5.64
2023-03-17T06:20:33.202Z,5.03
2023-03-17T06:23:05.037Z,5.61
2023-03-17T06:25:33.117Z,5.82
2023-03-17T06:28:02.626Z,5.67
2023-03-17T06:30:30.810Z,5.71
2023-03-17T06:32:57.601Z,5.47
2023-03-17T06:35:25.256Z,5.29
2023-03-17T06:37:52.137Z,5.41
2023-03-17T06:40:18.985Z,5.58
2023-03-17T06:42:45.752Z,5.43
2023-03-17T06:45:12.958Z,5.45
2023-03-17T06:47:39.960Z,5.54
2023-03-17T06:50:09.814Z,5.39
2023-03-17T06:52:37.608Z,5.53
2023-03-17T06:55:05.339Z,5.70
2023-03-17T06:57:32.563Z,5.88
2023-03-17T06:59:59.127Z,5.76
2023-03-17T07:02:26.461Z,5.64
2023-03-17T07:04:53.490Z,5.66
2023-03-17T07:07:21.227Z,5.59
2023-03-17T07:09:48.089Z,5.25
2023-03-17T07:12:15.850Z,5.46
2023-03-17T07:14:42.476Z,5.65
2023-03-17T07:17:13.154Z,5.58
2023-03-17T07:19:40.659Z,5.56
2023-03-17T07:22:09.517Z,5.87
2023-03-17T07:24:36.310Z,6.25
2023-03-17T07:27:02.972Z,5.92
2023-03-17T07:29:29.909Z,5.76
2023-03-17T07:31:56.592Z,5.48
2023-03-17T07:34:24.127Z,5.87
2023-03-17T07:36:51.088Z,5.75
2023-03-17T07:39:17.793Z,5.61
2023-03-17T07:41:44.642Z,5.94
2023-03-17T07:44:11.584Z,5.80
2023-03-17T07:46:39.058Z,5.95
2023-03-17T07:49:06.310Z,6.06
2023-03-17T07:51:33.476Z,6.15
2023-03-17T07:54:03.683Z,6.35
2023-03-17T07:56:31.442Z,6.02
2023-03-17T07:58:59.206Z,6.05
2023-03-17T08:01:27.856Z,6.08
2023-03-17T08:03:55.750Z,6.27
2023-03-17T08:06:25.444Z,6.04
2023-03-17T08:08:53.157Z,6.14
2023-03-17T08:11:20.200Z,6.24
2023-03-17T08:13:47.971Z,6.61
2023-03-17T08:16:14.677Z,6.67
2023-03-17T08:18:41.628Z,6.59
2023-03-17T08:21:08.320Z,6.88
2023-03-17T08:23:35.370Z,6.97
2023-03-17T08:26:04.087Z,6.56
2023-03-17T08:28:31.487Z,6.33
2023-03-17T08:31:17.221Z,6.67
2023-03-17T08:33:50.588Z,6.69
2023-03-17T08:36:18.621Z,6.57
2023-03-17T08:38:46.939Z,6.64
2023-03-17T08:41:16.669Z,6.44
2023-03-17T08:43:44.136Z,6.90
2023-03-17T08:46:31.730Z,6.91
2023-03-17T08:48:59.752Z,7.15
2023-03-17T08:51:32.544Z,7.41
2023-03-17T08:53:59.844Z,7.45
2023-03-17T08:56:27.445Z,6.84
2023-03-17T08:58:54.544Z,7.36
2023-03-17T09:01:22.975Z,6.73
2023-03-17T09:03:50.751Z,6.70
2023-03-17T09:06:18.094Z,7.41
2023-03-17T09:08:47.369Z,7.30
2023-03-17T09:11:16.763Z,7.22
2023-03-17T09:13:44.858Z,7.45
2023-03-17T09:16:11.557Z,7.16
2023-03-17T09:18:39.344Z,7.87
2023-03-17T09:21:06.637Z,7.98
2023-03-17T09:23:33.754Z,7.46
2023-03-17T09:26:02.205Z,7.42
2023-03-17T09:28:29.307Z,7.41
2023-03-17T09:31:03.925Z,7.08
2023-03-17T09:33:31.056Z,7.61
2023-03-17T09:35:58.170Z,7.60
2023-03-17T09:38:26.401Z,7.64
2023-03-17T09:40:53.013Z,7.34
2023-03-17T09:43:34.180Z,7.50
2023-03-17T09:46:25.366Z,7.17
2023-03-17T09:49:02.187Z,7.46
2023-03-17T09:51:32.455Z,7.55
2023-03-17T09:54:02.434Z,8.09
2023-03-17T09:56:35.039Z,7.46
2023-03-17T09:59:32.233Z,7.67
2023-03-17T10:01:59.023Z,8.07
2023-03-17T10:04:25.941Z,7.36
2023-03-17T10:07:02.668Z,7.17
2023-03-17T10:09:51.435Z,7.94
2023-03-17T10:12:25.089Z,7.72
2023-03-17T10:14:58.251Z,8.09
2023-03-17T10:17:35.750Z,7.13
2023-03-17T10:20:11.567Z,7.70
2023-03-17T10:23:01.714Z,7.82
2023-03-17T10:25:31.893Z,8.09
2023-03-17T10:28:31.710Z,8.25
2023-03-17T10:31:13.572Z,7.96
2023-03-17T10:33:40.347Z,7.86
2023-03-17T10:36:09.650Z,8.73
2023-03-17T10:38:36.994Z,7.94
2023-03-17T10:41:13.495Z,7.95
2023-03-17T10:43:45.779Z,7.51
2023-03-17T10:46:25.773Z,7.55
2023-03-17T10:48:56.955Z,8.15
2023-03-17T10:51:35.834Z,7.88
2023-03-17T10:54:20.535Z,7.91
2023-03-17T10:56:50.358Z,8.32
2023-03-17T11:02:14.760Z,8.43
2023-03-17T11:04:43.411Z,8.29
2023-03-17T11:07:17.718Z,8.29
2023-03-17T11:09:50.735Z,9.11
2023-03-17T11:12:30.038Z,8.20
2023-03-17T11:15:02.224Z,8.38
2023-03-17T11:18:01.553Z,8.34
2023-03-17T11:20:46.175Z,7.90
2023-03-17T11:23:19.274Z,8.60
2023-03-17T11:25:52.380Z,8.73
2023-03-17T11:28:21.916Z,8.66
2023-03-17T11:31:20.924Z,9.29
2023-03-17T11:34:00.075Z,9.18
2023-03-17T11:36:36.308Z,8.92
2023-03-17T11:39:14.059Z,8.91
2023-03-17T11:42:11.564Z,8.51
2023-03-17T11:45:15.638Z,9.20
2023-03-17T11:48:06.809Z,9.53
2023-03-17T11:50:44.657Z,8.97
2023-03-17T11:53:26.411Z,8.28
2023-03-17T11:56:20.261Z,9.06
2023-03-17T11:58:52.621Z,8.81
2023-03-17T12:01:28.303Z,9.49
2023-03-17T12:04:16.573Z,9.25
2023-03-17T12:06:50.674Z,9.57
2023-03-17T12:09:30.840Z,7.99
2023-03-17T12:11:59.631Z,8.72
2023-03-17T12:14:30.773Z,9.28
2023-03-17T12:17:07.122Z,9.10
2023-03-17T12:20:12.713Z,9.50
2023-03-17T12:23:12.165Z,8.18
2023-03-17T12:25:51.757Z,7.96
2023-03-17T12:28:25.218Z,8.41
2023-03-17T12:31:07.881Z,8.16
2023-03-17T12:33:43.910Z,9.36
2023-03-17T12:36:17.666Z,9.72
2023-03-17T12:38:51.946Z,10.03
2023-03-17T12:41:43.920Z,9.53
2023-03-17T12:44:13.378Z,9.58
2023-03-17T12:47:12.223Z,9.73
2023-03-17T12:49:54.022Z,9.57
2023-03-17T12:52:53.063Z,9.60
2023-03-17T12:55:24.886Z,9.68
2023-03-17T12:58:08.084Z,9.36
2023-03-17T13:00:50.752Z,8.98
2023-03-17T13:03:32.791Z,8.92
2023-03-17T13:06:07.500Z,9.40
2023-03-17T13:08:42.281Z,9.19
2023-03-17T13:11:17.934Z,9.52
2023-03-17T13:14:11.707Z,9.76
2023-03-17T13:16:41.286Z,10.21
2023-03-17T13:19:26.917Z,10.36
2023-03-17T13:22:14.290Z,10.28
2023-03-17T13:24:52.605Z,9.43
2023-03-17T13:27:34.022Z,9.49
2023-03-17T13:30:26.972Z,9.49
2023-03-17T13:33:12.285Z,9.33
2023-03-17T13:35:42.725Z,9.90
2023-03-17T13:38:20.206Z,9.88
2023-03-17T13:40:59.390Z,9.30
2023-03-17T13:43:48.817Z,8.86
2023-03-17T13:46:41.852Z,9.19
2023-03-17T13:49:24.247Z,9.52
2023-03-17T13:52:16.317Z,9.07
2023-03-17T13:54:50.017Z,9.96
2023-03-17T13:57:36.147Z,10.03
2023-03-17T14:00:24.336Z,8.56
2023-03-17T14:03:02.105Z,8.91
2023-03-17T14:05:35.635Z,9.17
2023-03-17T14:08:21.726Z,8.82
2023-03-17T14:11:03.835Z,8.26
2023-03-17T14:13:49.468Z,8.23
2023-03-17T14:16:32.164Z,8.40
2023-03-17T14:19:10.949Z,9.40
2023-03-17T14:21:37.627Z,9.02
2023-03-17T14:24:24.384Z,8.41
2023-03-17T14:26:52.524Z,8.31
2023-03-17T14:29:25.289Z,8.40
2023-03-17T14:32:02.405Z,8.26
2023-03-17T14:34:29.092Z,8.07
2023-03-17T14:37:02.220Z,8.50
2023-03-17T14:39:29.456Z,8.16
2023-03-17T14:42:01.753Z,8.45
2023-03-17T14:44:36.017Z,8.77
2023-03-17T14:47:06.069Z,8.72
2023-03-17T14:49:33.801Z,8.51
2023-03-17T14:52:00.909Z,8.81
2023-03-17T14:54:32.481Z,8.66
2023-03-17T14:57:03.282Z,8.43
2023-03-17T14:59:41.852Z,7.73
2023-03-17T15:02:23.284Z,7.97
2023-03-17T15:04:53.657Z,8.56
2023-03-17T15:07:35.633Z,9.33
2023-03-17T15:10:03.571Z,9.34
2023-03-17T15:12:30.754Z,8.68
2023-03-17T15:15:09.170Z,8.92
2023-03-17T15:17:37.019Z,8.46
2023-03-17T15:20:13.461Z,8.92
2023-03-17T15:22:43.406Z,8.30
2023-03-17T15:25:31.966Z,8.58
2023-03-17T15:27:59.039Z,9.07
2023-03-17T15:30:29.535Z,8.18
2023-03-17T15:33:00.999Z,8.19
2023-03-17T15:35:27.739Z,8.01
2023-03-17T15:37:55.076Z,7.86
2023-03-17T15:40:23.202Z,8.57
2023-03-17T15:42:49.829Z,8.04
2023-03-17T15:45:17.768Z,8.59
2023-03-17T15:47:47.059Z,8.50
2023-03-17T15:50:22.201Z,8.61
2023-03-17T15:52:49.050Z,8.68
2023-03-17T15:55:20.986Z,8.35
2023-03-17T15:57:54.740Z,8.36
2023-03-17T16:00:23.965Z,7.64
2023-03-17T16:02:55.001Z,7.73
2023-03-17T16:05:24.496Z,7.95
2023-03-17T16:07:51.628Z,8.09
2023-03-17T16:10:25.476Z,7.52
2023-03-17T16:12:52.612Z,7.87
2023-03-17T16:15:28.113Z,7.61
2023-03-17T16:17:58.418Z,7.11
2023-03-17T16:20:34.046Z,7.58
2023-03-17T16:23:07.401Z,7.50
2023-03-17T16:25:34.201Z,7.90
2023-03-17T16:28:07.469Z,7.74
2023-03-17T16:30:34.839Z,8.14
2023-03-17T16:33:09.169Z,6.97
2023-03-17T16:35:35.977Z,6.92
2023-03-17T16:38:02.569Z,7.50
2023-03-17T16:40:35.868Z,7.48
2023-03-17T16:43:12.956Z,8.03
2023-03-17T16:45:42.486Z,7.86
2023-03-17T16:48:13.568Z,7.64
2023-03-17T16:50:40.818Z,7.00
2023-03-17T16:53:07.658Z,6.86
2023-03-17T16:55:34.722Z,7.04
2023-03-17T16:58:07.224Z,7.13
2023-03-17T17:00:34.283Z,6.77
2023-03-17T17:03:00.932Z,7.36
2023-03-17T17:05:30.192Z,7.74
2023-03-17T17:07:58.172Z,7.41
2023-03-17T17:10:27.369Z,6.80
2023-03-17T17:12:54.551Z,7.30
2023-03-17T17:15:22.613Z,7.69
2023-03-17T17:17:51.872Z,7.69
2023-03-17T17:20:23.841Z,7.93
2023-03-17T17:22:51.194Z,7.52
2023-03-17T17:25:18.736Z,7.05
2023-03-17T17:27:46.366Z,7.59
2023-03-17T17:30:16.551Z,7.51
2023-03-17T17:32:43.741Z,7.85
2023-03-17T17:35:10.427Z,7.85
2023-03-17T17:37:37.512Z,8.07
2023-03-17T17:40:05.915Z,7.99
2023-03-17T17:42:32.559Z,8.06
2023-03-17T17:44:59.515Z,8.29
2023-03-17T17:47:26.153Z,8.35
2023-03-17T17:49:52.866Z,8.49
2023-03-17T17:52:19.545Z,8.30
2023-03-17T17:54:46.282Z,8.60
2023-03-17T17:57:13.431Z,8.57
2023-03-17T17:59:40.442Z,8.45
2023-03-17T18:02:07.312Z,8.43
2023-03-17T18:04:34.060Z,8.27
2023-03-17T18:07:00.847Z,8.31
2023-03-17T18:09:27.838Z,8.38
2023-03-17T18:11:54.493Z,8.23
2023-03-17T18:14:21.643Z,8.09
2023-03-17T18:16:48.493Z,8.14
2023-03-17T18:19:15.880Z,8.21
2023-03-17T18:21:43.113Z,8.28
2023-03-17T18:24:10.457Z,8.33
2023-03-17T18:26:37.188Z,8.10
2023-03-17T18:29:03.879Z,8.20
2023-03-17T18:31:34.858Z,8.38
2023-03-17T18:34:21.857Z,8.30
2023-03-17T18:36:49.938Z,8.18
2023-03-17T18:39:16.746Z,8.07
2023-03-17T18:41:44.731Z,7.99
2023-03-17T18:44:11.972Z,8.22
2023-03-17T18:46:38.657Z,8.20
2023-03-17T18:49:06.414Z,7.97
2023-03-17T18:51:33.927Z,8.01
2023-03-17T18:54:00.599Z,7.84
2023-03-17T18:56:29.324Z,7.92
2023-03-17T18:58:57.167Z,7.93
2023-03-17T19:01:24.757Z,7.79
2023-03-17T19:03:51.941Z,7.65
2023-03-17T19:06:20.700Z,7.40
2023-03-17T19:08:48.389Z,7.46
2023-03-17T19:11:17.265Z,7.08
2023-03-17T19:13:45.576Z,6.73
2023-03-17T19:16:13.177Z,6.78
2023-03-17T19:18:42.238Z,7.13
2023-03-17T19:21:09.742Z,7.31
2023-03-17T19:23:38.275Z,7.45
2023-03-17T19:26:06.248Z,7.64
2023-03-17T19:28:33.680Z,7.66
2023-03-17T19:31:00.779Z,7.54
2023-03-17T19:33:28.983Z,7.41
2023-03-17T19:35:58.724Z,7.50
2023-03-17T19:38:32.761Z,7.40
2023-03-17T19:40:59.490Z,7.39
2023-03-17T19:43:40.032Z,7.37
2023-03-17T19:46:12.114Z,7.63
2023-03-17T19:48:39.634Z,7.61
2023-03-17T19:51:06.929Z,7.59
2023-03-17T19:53:34.168Z,7.51
2023-03-17T19:56:02.208Z,7.49
2023-03-17T19:58:28.896Z,7.41
2023-03-17T20:00:56.385Z,7.27
2023-03-17T20:03:25.651Z,6.99
2023-03-17T20:05:53.728Z,6.88
2023-03-17T20:08:22.355Z,6.69
2023-03-17T20:10:54.039Z,6.89
2023-03-17T20:13:21.960Z,6.79
2023-03-17T20:15:50.142Z,6.93
2023-03-17T20:18:17.177Z,6.94
2023-03-17T20:20:49.505Z,6.97
2023-03-17T20:23:17.472Z,6.96
2023-03-17T20:25:44.591Z,6.86
2023-03-17T20:28:12.333Z,6.97
2023-03-17T20:30:39.959Z,7.05
2023-03-17T20:33:08.328Z,6.78
2023-03-17T20:35:35.463Z,6.66
2023-03-17T20:38:02.305Z,6.47
2023-03-17T20:40:29.417Z,6.18
2023-03-17T20:42:56.533Z,6.33
2023-03-17T20:45:23.266Z,6.19
2023-03-17T20:47:50.168Z,6.59
2023-03-17T20:50:17.085Z,6.49
2023-03-17T20:52:43.785Z,6.51
2023-03-17T20:55:13.963Z,6.23
2023-03-17T20:57:42.126Z,5.82
2023-03-17T21:00:12.993Z,5.55
2023-03-17T21:02:39.676Z,5.30
2023-03-17T21:05:07.472Z,4.82
2023-03-17T21:07:34.074Z,4.71
2023-03-17T21:10:02.229Z,5.00
2023-03-17T21:12:28.909Z,5.50
2023-03-17T21:14:55.928Z,5.66
2023-03-17T21:17:25.554Z,5.68
2023-03-17T21:19:54.114Z,5.58
2023-03-17T21:22:20.942Z,6.02
2023-03-17T21:24:47.462Z,6.05
2023-03-17T21:27:14.138Z,6.05
2023-03-17T21:29:40.972Z,5.85
2023-03-17T21:32:08.577Z,5.83
2023-03-17T21:34:37.144Z,5.52
2023-03-17T21:37:04.443Z,5.48
2023-03-17T21:39:32.741Z,5.52
2023-03-17T21:42:01.344Z,4.83
2023-03-17T21:44:28.276Z,5.10
2023-03-17T21:46:56.701Z,5.61
2023-03-17T21:49:24.836Z,5.86
2023-03-17T21:51:51.716Z,6.01
2023-03-17T21:54:19.318Z,6.08
2023-03-17T21:56:46.328Z,6.23
2023-03-17T21:59:14.693Z,5.78
2023-03-17T22:01:43.228Z,5.66
2023-03-17T22:04:10.722Z,5.78
2023-03-17T22:06:37.346Z,5.82
2023-03-17T22:09:05.487Z,6.15
2023-03-17T22:11:32.212Z,6.34
2023-03-17T22:13:59.072Z,6.29
2023-03-17T22:16:26.015Z,6.38
2023-03-17T22:18:52.856Z,6.45
2023-03-17T22:21:20.535Z,6.14
2023-03-17T22:23:47.888Z,6.02
2023-03-17T22:26:16.838Z,6.14
2023-03-17T22:28:44.833Z,6.15
2023-03-17T22:31:16.986Z,5.94
2023-03-17T22:33:44.185Z,5.39
2023-03-17T22:36:11.504Z,5.29
2023-03-17T22:38:38.427Z,5.43
2023-03-17T22:41:08.423Z,5.67
2023-03-17T22:43:36.810Z,5.55
2023-03-17T22:46:03.871Z,5.74
2023-03-17T22:48:32.592Z,5.82
2023-03-17T22:51:03.536Z,5.91
2023-03-17T22:53:31.589Z,5.90
2023-03-17T22:55:59.030Z,5.98
2023-03-17T22:58:26.577Z,6.03
2023-03-17T23:00:54.239Z,5.89
2023-03-17T23:03:21.110Z,5.97
2023-03-17T23:05:49.897Z,5.95
2023-03-17T23:08:17.907Z,5.87
2023-03-17T23:10:45.908Z,5.65
2023-03-17T23:13:12.708Z,5.57
2023-03-17T23:15:39.375Z,5.87
2023-03-17T23:18:06.521Z,5.90
2023-03-17T23:20:33.919Z,5.75
2023-03-17T23:23:00.932Z,5.77
2023-03-17T23:25:27.571Z,6.05
2023-03-17T23:27:54.928Z,6.11
2023-03-17T23:30:21.680Z,5.93
2023-03-17T23:32:49.367Z,5.71
2023-03-17T23:35:17.495Z,5.76
2023-03-17T23:37:45.129Z,5.96
2023-03-17T23:40:17.373Z,5.65
2023-03-17T23:42:46.029Z,5.75
2023-03-17T23:45:15.341Z,6.02
2023-03-17T23:47:42.921Z,5.90
2023-03-17T23:50:11.752Z,5.85
2023-03-17T23:52:38.629Z,5.89
2023-03-17T23:55:06.775Z,5.46
2023-03-17T23:57:34.741Z,5.30
